deformed-offering

Nearby METAR Reports

 

KNUQ - Moffett Nas/Mtn, California, USA
Distance from station: N 9mi, 14km
Updated: Sun, 16-Dec-2018 6:56pm PST
Overcast
Overcast
 Wind from SE
Wind: SE 10 mph , 17 km/h, Gust: 20 mph , 31 km/h
Temperature: 57°F , 14°C
Dew Point: 54°F , 12°C
Humidity: 88%
Barometer: 30.02 inHg , 1016.6 hPa
Clouds: Overcast
Visibility: 10 miles , 16 km
Cloud details: Mostly Cloudy 10000 ft
Overcast 12000 ft
2018/12/17 02:56 KNUQ 170256Z 14009G17KT 10SM BKN100 OVC120 14/12 A3002 RMK AO2 RAE56 SLP169 P0002 60009 T01390122 58001 $
KSJC - San Jose, California, USA
Distance from station: NE 9mi, 14km
Updated: Sun, 16-Dec-2018 6:53pm PST
Light rain, Overcast
Light rain, Overcast
 Wind from SE
Wind: SE 16 mph , 26 km/h, Gust: 24 mph , 39 km/h
Temperature: 57°F , 14°C
Dew Point: 54°F , 12°C
Humidity: 88%
Barometer: 30.02 inHg , 1016.6 hPa
Summary: Light Rain
Clouds: Overcast
Visibility: 9 miles , 14 km
Cloud details: Few Clouds 100 ft
Partly Cloudy 5000 ft
Overcast 8000 ft
2018/12/17 02:53 KSJC 170253Z 13014G21KT 9SM -RA FEW001 SCT050 OVC080 14/12 A3002 RMK AO2 SLP164 P0006 60019 T01390122 58003
 
KRHV - San Jose/Reid, California, USA
Distance from station: ENE 12mi, 19km
Updated: Sun, 16-Dec-2018 6:50pm PST
Light rain, Overcast
Light rain, Overcast
 Wind from SE
Wind: SE 14 mph , 22 km/h
Temperature: 57°F , 14°C
Dew Point: 55°F , 13°C
Humidity: 94%
Barometer: 30.02 inHg , 1016.6 hPa
Summary: Light Rain
Clouds: Overcast
Visibility: 6 miles , 10 km
Cloud details: Partly Cloudy 3000 ft
Overcast 8000 ft
2018/12/17 02:50 KRHV 170250Z 14012KT 6SM -RA SCT030 OVC080 14/13 A3002
KPAO - Palo Alto, California, USA
Distance from station: NNW 14mi, 23km
Updated: Sun, 16-Dec-2018 7:47pm PST
Nearby showers, Overcast
Nearby showers, Overcast
 Wind from SE
Wind: SE 14 mph , 22 km/h, Gust: 23 mph , 37 km/h
Temperature: 59°F , 15°C
Dew Point: 55°F , 13°C
Humidity: 88%
Barometer: 30.01 inHg , 1016.3 hPa
Summary: Nearby Showers
Clouds: Overcast
Visibility: 10 miles , 16 km
Cloud details: Few Clouds 1500 ft
Mostly Cloudy 5000 ft
Overcast 12000 ft
2018/12/17 03:47 KPAO 170347Z 13012G20KT 10SM VCSH FEW015 BKN050 OVC120 15/13 A3001
 
KSQL - San Carlos Airpo, California, USA
Distance from station: NW 21mi, 34km
Updated: Sun, 16-Dec-2018 6:49pm PST
Overcast
Overcast
 Wind from E
Wind: E 7 mph , 11 km/h
Temperature: 57°F , 14°C
Dew Point: 55°F , 13°C
Humidity: 94%
Barometer: 30.02 inHg , 1016.6 hPa
Clouds: Overcast
Visibility: 10 miles , 16 km
Cloud details: Partly Cloudy 2300 ft
Overcast 11000 ft
2018/12/17 02:49 KSQL 170249Z 10006KT 10SM SCT023 OVC110 14/13 A3002
KE16 - San Martin, California, USA
Distance from station: ESE 27mi, 43km
Updated: Sun, 16-Dec-2018 7:15pm PST
Light rain, Overcast
Light rain, Overcast
 Wind from calm
Wind: Calm
Temperature: 54°F , 12°C
Dew Point: 54°F , 12°C
Humidity: 100%
Barometer: 30.10 inHg , 1019.3 hPa
Summary: Light Rain
Clouds: Overcast
Visibility: 2 1/2 miles , 4 km
Cloud details: Partly Cloudy 1900 ft
Mostly Cloudy 2400 ft
Overcast 3000 ft
2018/12/17 03:15 KE16 170315Z AUTO 00000KT 2 1/2SM -RA SCT019 BKN024 OVC030 12/12 A3010 RMK AO2
 
KWVI - Watsonville, California, USA
Distance from station: SSE 27mi, 44km
Updated: Sun, 16-Dec-2018 7:46pm PST
Rain, Overcast
Rain, Overcast
 Wind from calm
Wind: Calm
Temperature: 55°F , 13°C
Barometer: 30.09 inHg , 1019 hPa
Summary: Rain
Clouds: Overcast
Visibility: 4 miles , 6 km
Cloud details: Partly Cloudy 900 ft
Overcast 2500 ft
2018/12/17 03:46 KWVI 170346Z AUTO 00000KT 4SM RA SCT009 OVC025 13/ A3009 RMK AO2 P0049 T0133 $
KHWD - Hayward, California, USA
Distance from station: N 28mi, 44km
Updated: Sun, 16-Dec-2018 7:46pm PST
Mostly Cloudy
Mostly Cloudy
 Wind from SE
Wind: SE 12 mph , 19 km/h
Temperature: 61°F , 16°C
Dew Point: 54°F , 12°C
Humidity: 77%
Barometer: 30.01 inHg , 1016.3 hPa
Clouds: Mostly Cloudy
Visibility: 10 miles , 16 km
Cloud details: Mostly Cloudy 2800 ft
2018/12/17 03:46 KHWD 170346Z 14010KT 10SM BKN028 16/12 A3001 RMK AO2 T01560122
 
KSFO - San Francisco, California, USA
Distance from station: NW 30mi, 49km
Updated: Sun, 16-Dec-2018 7:28pm PST
Overcast
Overcast
 Wind from E
Wind: E 12 mph , 19 km/h
Temperature: 55°F , 13°C
Dew Point: 54°F , 12°C
Humidity: 94%
Barometer: 30.00 inHg , 1015.9 hPa
Clouds: Overcast
Visibility: 10 miles , 16 km
Cloud details: Partly Cloudy 2100 ft
Mostly Cloudy 3100 ft
Overcast 7000 ft
2018/12/17 03:28 KSFO 170328Z 10010KT 10SM SCT021 BKN031 OVC070 13/12 A3000 RMK AO2 RAE0257 P0000 T01330117
KHAF - Half Moon Bay, California, USA
Distance from station: WNW 31mi, 50km
Updated: Sun, 16-Dec-2018 7:40pm PST
Mist, Overcast
Mist, Overcast
 Wind from S
Wind: S 20 mph , 31 km/h, Gust: 29 mph , 46 km/h
Temperature: 57°F , 14°C
Dew Point: 55°F , 13°C
Humidity: 94%
Barometer: 30.02 inHg , 1016.6 hPa
Summary: Mist
Clouds: Overcast
Visibility: 4 miles , 6 km
Cloud details: Mostly Cloudy 1200 ft
Overcast 2200 ft
2018/12/17 03:40 KHAF 170340Z AUTO 18017G25KT 4SM BR BKN012 OVC022 14/13 A3002 RMK AO2
 
KOAK - Oakland, California, USA
Distance from station: NNW 31mi, 50km
Updated: Sun, 16-Dec-2018 6:53pm PST
Overcast
Overcast
 Wind from SE
Wind: SE 12 mph , 19 km/h
Temperature: 57°F , 14°C
Dew Point: 54°F , 12°C
Humidity: 88%
Barometer: 30.02 inHg , 1016.6 hPa
Clouds: Overcast
Visibility: 10 miles , 16 km
Cloud details: Few Clouds 1400 ft
Mostly Cloudy 2600 ft
Overcast 8000 ft
2018/12/17 02:53 KOAK 170253Z 14010KT 10SM FEW014 BKN026 OVC080 14/12 A3002 RMK AO2 RAE29 SLP164 P0001 60015 T01440122 58001
KLVK - Livermore, California, USA
Distance from station: NNE 31mi, 51km
Updated: Sun, 16-Dec-2018 6:53pm PST
Light rain, Mist, Overcast
Light rain, Mist, Overcast
 Wind from E
Wind: E 13 mph , 20 km/h
Temperature: 55°F , 13°C
Dew Point: 54°F , 12°C
Humidity: 94%
Barometer: 29.99 inHg , 1015.6 hPa
Summary: Light rain, Mist
Clouds: Overcast
Visibility: 5 miles , 8 km
Cloud details: Few Clouds 6000 ft
Overcast 7500 ft
2018/12/17 02:53 KLVK 170253Z 08011KT 5SM -RA BR FEW060 OVC075 13/12 A2999 RMK AO2 PRESFR SLP156 P0009 60026 T01280122 58006
 
KCVH - Hollister Muni, California, USA
Distance from station: SE 42mi, 68km
Updated: Sun, 16-Dec-2018 7:35pm PST
Mist, Overcast
Mist, Overcast
 Wind from calm
Wind: Calm
Temperature: 54°F , 12°C
Dew Point: 54°F , 12°C
Humidity: 100%
Barometer: 30.08 inHg , 1018.6 hPa
Summary: Mist
Clouds: Overcast
Visibility: 4 miles , 6 km
Cloud details: Mostly Cloudy 100 ft
Mostly Cloudy 2000 ft
Overcast 3700 ft
2018/12/17 03:35 KCVH 170335Z AUTO 00000KT 4SM BR BKN001 BKN020 OVC037 12/12 A3008 RMK A01
KSNS - Salinas, California, USA
Distance from station: SSE 48mi, 77km
Updated: Sun, 16-Dec-2018 7:49pm PST
Heavy rain, Mist, Overcast
Heavy rain, Mist, Overcast
 Wind from SSE
Wind: SSE 12 mph , 19 km/h
Temperature: 57°F , 14°C
Dew Point: 54°F , 12°C
Humidity: 88%
Barometer: 30.09 inHg , 1019 hPa
Summary: Heavy rain, Mist
Clouds: Overcast
Visibility: 2 1/2 miles , 4 km
Cloud details: Partly Cloudy 2800 ft
Overcast 3600 ft
2018/12/17 03:49 KSNS 170349Z AUTO 15010KT 2 1/2SM +RA BR SCT028 OVC036 14/12 A3009 RMK AO2 P0017
 
KMRY - Monterey, California, USA
Distance from station: SSE 49mi, 78km
Updated: Sun, 16-Dec-2018 7:37pm PST
Rain, Mist, Overcast
Rain, Mist, Overcast
 Wind from calm
Wind: Calm
Temperature: 57°F , 14°C
Dew Point: 54°F , 12°C
Humidity: 88%
Barometer: 30.08 inHg , 1018.6 hPa
Summary: Rain, Mist
Clouds: Overcast
Visibility: 4 miles , 6 km
Cloud details: Few Clouds 400 ft
Mostly Cloudy 4300 ft
Overcast 7000 ft
2018/12/17 03:37 KMRY 170337Z 00000KT 4SM RA BR FEW004 BKN043 OVC070 14/12 A3008 RMK AO2 P0024 T01390122
KCCR - Concord, California, USA
Distance from station: N 50mi, 81km
Updated: Sun, 16-Dec-2018 7:50pm PST
Mostly Cloudy
Mostly Cloudy
 Wind from calm
Wind: Calm
Temperature: 57°F , 14°C
Dew Point: 54°F , 12°C
Humidity: 88%
Barometer: 30.02 inHg , 1016.6 hPa
Clouds: Mostly Cloudy
Visibility: 10 miles , 16 km
Cloud details: Mostly Cloudy 2600 ft
Mostly Cloudy 3400 ft
2018/12/17 03:50 KCCR 170350Z 00000KT 10SM BKN026 BKN034 14/12 A3002 RMK AO2 P0001
deformed-offering